Time;durP1;ratioP1;P1;durP2;ratioP2;P2;SDS_P1;SDS_P2;PMS_P1;PMS_P2;Temp;Humidity;BMP_temperature;BMP_pressure;BME280_temperature;BME280_humidity;BME280_pressure;Samples;Min_cycle;Max_cycle;Signal;HPM_P1;HPM_P2
2023/08/28 00:00:49;;;;;;;12.93;11.63;;;28.80;98.10;;;;;;4798580;29;20275;-81
2023/08/28 00:03:16;;;;;;;13.33;11.77;;;28.80;98.10;;;;;;4797759;29;20453;-82
2023/08/28 00:05:41;;;;;;;13.90;11.97;;;28.80;98.20;;;;;;4797373;29;20743;-82
2023/08/28 00:08:07;;;;;;;15.53;13.37;;;28.70;98.40;;;;;;4797477;29;20488;-85
2023/08/28 00:10:33;;;;;;;16.70;12.97;;;28.70;98.30;;;;;;4797670;29;20695;-86
2023/08/28 00:12:59;;;;;;;15.20;12.90;;;28.70;98.40;;;;;;4796910;29;20489;-82
2023/08/28 00:15:25;;;;;;;15.93;13.20;;;28.60;98.50;;;;;;4798708;29;20664;-87
2023/08/28 00:17:50;;;;;;;14.47;12.33;;;28.60;98.50;;;;;;4796961;29;20192;-82
2023/08/28 00:20:16;;;;;;;16.10;12.50;;;28.60;98.60;;;;;;4797516;29;20210;-81
2023/08/28 00:22:42;;;;;;;14.10;12.47;;;28.50;98.70;;;;;;4797148;29;20229;-83
2023/08/28 00:25:09;;;;;;;12.50;11.20;;;28.40;98.80;;;;;;4797017;29;20488;-87
2023/08/28 00:27:35;;;;;;;14.97;11.20;;;28.40;98.90;;;;;;4797005;29;20494;-82
2023/08/28 00:30:03;;;;;;;15.30;12.63;;;28.30;99.00;;;;;;4797343;29;20452;-87
2023/08/28 00:32:29;;;;;;;15.47;12.37;;;28.30;99.00;;;;;;4797199;29;20968;-82
2023/08/28 00:34:55;;;;;;;16.13;12.57;;;28.20;99.10;;;;;;4798616;29;20451;-82
2023/08/28 00:37:20;;;;;;;13.03;11.53;;;28.10;99.20;;;;;;4795799;29;20207;-87
2023/08/28 00:39:46;;;;;;;13.90;12.50;;;28.10;99.30;;;;;;4797048;29;20684;-82
2023/08/28 00:42:12;;;;;;;15.33;12.77;;;28.10;99.40;;;;;;4798343;29;20268;-82
2023/08/28 00:44:38;;;;;;;16.73;12.97;;;28.00;99.50;;;;;;4796945;29;20241;-82
2023/08/28 00:47:05;;;;;;;14.80;13.27;;;28.00;99.90;;;;;;4796830;29;20517;-86
2023/08/28 00:49:32;;;;;;;16.20;12.23;;;28.00;99.60;;;;;;4797197;29;20192;-86
2023/08/28 00:51:58;;;;;;;14.60;13.17;;;28.00;99.60;;;;;;4796930;29;20800;-86
2023/08/28 00:54:24;;;;;;;15.47;13.13;;;28.00;99.70;;;;;;4796771;29;20426;-86
2023/08/28 00:56:53;;;;;;;13.57;11.73;;;28.00;99.80;;;;;;4796937;29;20468;-82
2023/08/28 00:59:19;;;;;;;15.57;12.90;;;28.00;99.80;;;;;;4811680;29;20444;-87
2023/08/28 01:01:44;;;;;;;15.40;13.13;;;27.90;99.80;;;;;;4797338;29;20826;-81
2023/08/28 01:04:10;;;;;;;17.13;12.80;;;27.90;99.90;;;;;;4796682;29;20225;-82
2023/08/28 01:06:44;;;;;;;16.00;14.10;;;27.80;99.90;;;;;;4797266;29;20682;-82
2023/08/28 01:09:40;;;;;;;14.80;13.00;;;27.80;99.90;;;;;;4796895;29;20187;-87
2023/08/28 01:12:43;;;;;;;15.97;12.70;;;27.70;99.90;;;;;;4796766;29;20443;-82
2023/08/28 01:15:20;;;;;;;15.40;13.80;;;27.70;99.90;;;;;;4798053;29;20459;-82
2023/08/28 01:17:54;;;;;;;19.93;12.20;;;27.60;99.90;;;;;;4799753;29;20941;-87
2023/08/28 01:20:21;;;;;;;15.70;13.43;;;27.50;99.90;;;;;;4801169;29;20439;-81
2023/08/28 01:23:07;;;;;;;19.37;14.00;;;27.50;99.90;;;;;;4799335;29;20782;-81
2023/08/28 01:25:34;;;;;;;14.47;13.00;;;27.40;99.90;;;;;;4800071;29;20903;-82
2023/08/28 01:28:00;;;;;;;15.87;12.97;;;27.30;99.90;;;;;;4799592;29;20458;-86
2023/08/28 01:30:25;;;;;;;16.23;12.90;;;27.30;99.90;;;;;;4800065;29;20474;-87
2023/08/28 01:32:51;;;;;;;14.27;12.77;;;27.30;99.90;;;;;;4799490;29;20806;-82
2023/08/28 01:35:20;;;;;;;16.03;13.40;;;27.20;99.90;;;;;;4801437;29;20518;-87
2023/08/28 01:38:13;;;;;;;13.53;12.23;;;27.20;99.90;;;;;;4799277;29;20592;-81
2023/08/28 01:41:01;;;;;;;15.77;14.03;;;27.20;99.90;;;;;;4799697;29;20476;-81
2023/08/28 01:43:38;;;;;;;15.27;13.43;;;27.10;99.90;;;;;;4799580;29;20428;-81
2023/08/28 01:46:04;;;;;;;16.30;13.80;;;27.10;99.90;;;;;;4799570;29;20549;-82
2023/08/28 01:48:33;;;;;;;15.70;12.77;;;27.10;99.90;;;;;;4800709;29;20917;-86
2023/08/28 01:50:58;;;;;;;18.00;13.77;;;27.10;99.90;;;;;;4800689;29;20794;-86
2023/08/28 01:53:27;;;;;;;15.40;13.20;;;27.00;99.90;;;;;;4800775;29;20422;-80
2023/08/28 01:56:13;;;;;;;15.03;13.43;;;27.00;99.90;;;;;;4800615;29;20335;-81
2023/08/28 01:58:57;;;;;;;14.17;12.77;;;26.90;99.90;;;;;;4799026;29;20427;-81
2023/08/28 02:01:24;;;;;;;19.53;14.10;;;26.90;99.90;;;;;;4799629;29;20884;-81
2023/08/28 02:03:50;;;;;;;14.53;13.13;;;26.80;99.90;;;;;;4800291;29;20505;-85
2023/08/28 02:06:16;;;;;;;16.33;13.90;;;26.80;99.90;;;;;;4799177;29;20446;-86
2023/08/28 02:08:42;;;;;;;14.63;13.03;;;26.80;99.90;;;;;;4799250;29;20479;-81
2023/08/28 02:11:07;;;;;;;16.30;13.30;;;26.80;99.90;;;;;;4798995;29;20479;-83
2023/08/28 02:13:33;;;;;;;15.43;13.67;;;26.80;99.90;;;;;;4798891;29;20423;-81
2023/08/28 02:16:00;;;;;;;15.43;13.03;;;26.70;99.90;;;;;;4799222;29;20207;-86
2023/08/28 02:18:26;;;;;;;15.20;13.40;;;26.70;99.90;;;;;;4800144;29;20422;-82
2023/08/28 02:20:52;;;;;;;18.00;13.50;;;26.60;99.90;;;;;;4798750;29;20461;-87
2023/08/28 02:23:19;;;;;;;14.70;12.57;;;26.60;99.90;;;;;;4800331;29;20688;-81
2023/08/28 02:25:47;;;;;;;15.60;13.30;;;26.60;99.90;;;;;;4798881;29;20230;-86
2023/08/28 02:28:12;;;;;;;19.97;13.37;;;26.60;99.90;;;;;;4798170;29;20429;-86
2023/08/28 02:30:39;;;;;;;14.83;13.10;;;26.50;99.90;;;;;;4798762;29;20454;-86
2023/08/28 02:33:05;;;;;;;15.80;13.57;;;26.40;99.90;;;;;;4798663;29;20771;-86
2023/08/28 02:35:31;;;;;;;14.70;13.20;;;26.40;99.90;;;;;;4798766;29;20501;-86
2023/08/28 02:37:57;;;;;;;16.87;13.90;;;26.40;99.90;;;;;;4800013;29;20427;-81
2023/08/28 02:40:24;;;;;;;18.13;13.27;;;26.30;99.90;;;;;;4799084;29;20199;-87
2023/08/28 02:42:50;;;;;;;14.53;13.03;;;26.30;99.90;;;;;;4798260;29;20770;-81
2023/08/28 02:45:16;;;;;;;15.87;13.53;;;26.30;99.90;;;;;;4798733;29;20555;-85
2023/08/28 02:47:41;;;;;;;14.20;12.70;;;26.30;99.90;;;;;;4799566;29;20187;-81
2023/08/28 02:50:07;;;;;;;16.53;14.50;;;26.20;99.90;;;;;;4798608;29;20210;-86
2023/08/28 02:52:33;;;;;;;14.93;12.70;;;26.20;99.90;;;;;;4797988;29;20194;-86
2023/08/28 02:54:58;;;;;;;15.20;13.70;;;26.10;99.90;;;;;;4798298;29;20541;-81
2023/08/28 02:57:24;;;;;;;13.93;12.30;;;26.10;99.90;;;;;;4799856;29;20698;-80
2023/08/28 02:59:50;;;;;;;27.37;12.53;;;26.10;99.90;;;;;;4798064;29;20207;-85
2023/08/28 03:02:15;;;;;;;16.87;12.90;;;26.00;99.90;;;;;;4798109;29;20263;-86
2023/08/28 03:04:43;;;;;;;16.33;13.37;;;26.00;99.90;;;;;;4798356;29;20854;-81
2023/08/28 03:07:09;;;;;;;16.80;12.40;;;25.90;99.90;;;;;;4797979;29;20442;-87
2023/08/28 03:09:35;;;;;;;14.27;12.80;;;25.90;99.90;;;;;;4799739;29;20747;-81
2023/08/28 03:12:00;;;;;;;15.33;13.67;;;25.80;99.90;;;;;;4799626;29;20197;-81
2023/08/28 03:14:26;;;;;;;17.70;13.37;;;25.80;99.90;;;;;;4798021;29;20225;-85
2023/08/28 03:16:52;;;;;;;18.87;13.50;;;25.80;99.90;;;;;;4798220;29;20190;-81
2023/08/28 03:19:17;;;;;;;14.97;13.53;;;25.70;99.90;;;;;;4798189;29;20327;-81
2023/08/28 03:21:43;;;;;;;16.67;15.03;;;25.70;99.90;;;;;;4799276;29;20183;-85
2023/08/28 03:24:09;;;;;;;16.83;14.03;;;25.70;99.90;;;;;;4797894;29;20222;-84
2023/08/28 03:26:34;;;;;;;14.80;13.07;;;25.60;99.90;;;;;;4797959;29;20215;-81
2023/08/28 03:29:00;;;;;;;14.40;12.90;;;25.60;99.90;;;;;;4798817;29;20652;-84
2023/08/28 03:31:27;;;;;;;15.50;13.87;;;25.60;99.90;;;;;;4797980;29;20519;-81
2023/08/28 03:33:53;;;;;;;15.47;13.90;;;25.60;99.90;;;;;;4798130;29;20423;-81
2023/08/28 03:36:19;;;;;;;19.20;13.93;;;25.60;99.90;;;;;;4797785;29;20819;-81
2023/08/28 03:38:45;;;;;;;23.73;13.60;;;25.60;99.90;;;;;;4797323;29;21015;-85
2023/08/28 03:41:11;;;;;;;19.83;13.13;;;25.50;99.90;;;;;;4798613;29;20214;-86
2023/08/28 03:43:37;;;;;;;13.87;11.93;;;25.50;99.90;;;;;;4797097;29;20433;-81
2023/08/28 03:46:03;;;;;;;12.23;9.20;;;25.50;99.90;;;;;;4799318;29;20285;-81
2023/08/28 03:48:29;;;;;;;11.60;9.43;;;25.50;99.90;;;;;;4802900;29;20190;-81
2023/08/28 03:50:55;;;;;;;9.43;7.53;;;25.40;99.90;;;;;;4815261;29;20469;-81
2023/08/28 03:53:20;;;;;;;8.13;6.77;;;25.40;99.90;;;;;;4815440;29;20502;-83
2023/08/28 03:55:46;;;;;;;9.40;6.53;;;25.40;99.90;;;;;;4815700;29;20245;-86
2023/08/28 03:58:12;;;;;;;11.47;7.40;;;25.30;99.90;;;;;;4814691;29;20190;-80
2023/08/28 04:00:39;;;;;;;7.97;7.10;;;25.30;99.90;;;;;;4814284;29;20468;-81
2023/08/28 04:03:05;;;;;;;7.77;6.50;;;25.30;99.90;;;;;;4814912;29;20193;-86
2023/08/28 04:05:35;;;;;;;8.23;7.33;;;25.30;99.90;;;;;;4815684;29;20493;-86
2023/08/28 04:08:01;;;;;;;8.17;7.30;;;25.30;99.90;;;;;;4814996;29;20486;-86
2023/08/28 04:10:27;;;;;;;7.70;6.83;;;25.30;99.90;;;;;;4814777;29;20449;-81
2023/08/28 04:12:53;;;;;;;9.40;7.40;;;25.30;99.90;;;;;;4813054;29;20246;-85
2023/08/28 04:15:19;;;;;;;8.07;6.97;;;25.30;99.90;;;;;;4815994;29;20213;-80
2023/08/28 04:17:45;;;;;;;7.13;6.43;;;25.30;99.90;;;;;;4828322;29;20261;-81
2023/08/28 04:20:13;;;;;;;8.27;6.93;;;25.30;99.90;;;;;;4814054;29;20457;-81
2023/08/28 04:22:43;;;;;;;9.30;7.17;;;25.30;99.90;;;;;;4812455;29;20197;-80
2023/08/28 04:25:13;;;;;;;7.40;6.70;;;25.30;99.90;;;;;;4812530;29;20497;-83
2023/08/28 04:27:40;;;;;;;11.00;6.80;;;25.40;99.90;;;;;;4813637;29;20433;-85
2023/08/28 04:30:07;;;;;;;8.10;7.10;;;25.30;99.90;;;;;;4815104;29;20983;-86
2023/08/28 04:32:33;;;;;;;8.90;7.10;;;25.40;99.90;;;;;;4813966;29;20448;-87
2023/08/28 04:34:59;;;;;;;7.63;5.93;;;25.40;99.90;;;;;;4814553;29;20460;-87
2023/08/28 04:37:26;;;;;;;8.57;6.80;;;25.40;99.90;;;;;;4814159;29;20440;-87
2023/08/28 04:39:52;;;;;;;7.53;6.40;;;25.50;99.90;;;;;;4822581;29;20437;-89
2023/08/28 04:42:18;;;;;;;8.10;6.20;;;25.60;99.90;;;;;;4826187;29;20865;-86
2023/08/28 04:44:44;;;;;;;8.57;7.27;;;25.60;99.90;;;;;;4814946;29;20567;-83
2023/08/28 04:47:09;;;;;;;7.80;6.80;;;25.70;99.90;;;;;;4814086;29;20775;-89
2023/08/28 04:49:35;;;;;;;7.20;6.50;;;25.80;99.90;;;;;;4813286;29;20217;-90
2023/08/28 04:52:02;;;;;;;7.60;6.70;;;25.80;99.90;;;;;;4818232;29;20204;-81
2023/08/28 04:54:28;;;;;;;8.17;6.73;;;25.90;99.90;;;;;;4830914;29;20462;-89
2023/08/28 04:56:53;;;;;;;6.87;6.17;;;25.90;99.90;;;;;;4800644;29;20494;-82
2023/08/28 04:59:19;;;;;;;6.40;5.80;;;26.00;99.90;;;;;;4813302;29;20384;-80
2023/08/28 05:01:45;;;;;;;7.30;6.00;;;26.00;99.90;;;;;;4815280;29;20201;-81
2023/08/28 05:04:10;;;;;;;7.27;6.27;;;26.10;99.90;;;;;;4816962;29;20708;-88
2023/08/28 05:06:36;;;;;;;7.00;5.87;;;26.20;99.90;;;;;;4817376;29;20229;-82
2023/08/28 05:09:01;;;;;;;8.60;5.97;;;26.20;99.90;;;;;;4817331;29;20813;-80
2023/08/28 05:11:27;;;;;;;6.07;5.47;;;26.20;99.90;;;;;;4817722;29;20675;-88
2023/08/28 05:13:53;;;;;;;6.10;5.03;;;26.30;99.90;;;;;;4817052;29;20194;-88
2023/08/28 05:16:18;;;;;;;6.90;6.20;;;26.40;99.90;;;;;;4817850;29;20217;-81
2023/08/28 05:18:44;;;;;;;6.23;5.63;;;26.40;99.90;;;;;;4820055;29;20593;-84
2023/08/28 05:21:10;;;;;;;6.43;5.43;;;26.40;99.90;;;;;;4818702;29;20201;-82
2023/08/28 05:23:35;;;;;;;5.53;5.03;;;26.40;99.90;;;;;;4815291;29;20190;-86
2023/08/28 05:26:01;;;;;;;9.50;5.73;;;26.40;99.90;;;;;;4815569;29;20224;-88
2023/08/28 05:28:27;;;;;;;7.47;5.60;;;26.50;99.90;;;;;;4815501;29;20317;-88
2023/08/28 05:30:53;;;;;;;6.77;5.60;;;26.60;99.90;;;;;;4814488;29;20704;-88
2023/08/28 05:33:18;;;;;;;6.60;5.77;;;26.60;99.90;;;;;;4812310;29;20284;-87
2023/08/28 05:35:44;;;;;;;6.97;5.53;;;26.70;99.90;;;;;;4809207;29;20449;-89
2023/08/28 05:38:10;;;;;;;6.20;5.50;;;26.80;99.90;;;;;;4816446;29;20688;-86
2023/08/28 05:40:37;;;;;;;6.23;5.47;;;26.80;99.90;;;;;;4808798;29;20206;-82
2023/08/28 05:43:03;;;;;;;5.67;5.17;;;26.90;99.90;;;;;;4805476;29;20433;-88
2023/08/28 05:45:28;;;;;;;6.27;5.63;;;26.90;99.90;;;;;;4813658;29;20483;-81
2023/08/28 05:47:54;;;;;;;6.10;5.50;;;27.00;99.90;;;;;;4815984;29;20437;-81
2023/08/28 05:50:20;;;;;;;8.23;6.40;;;27.00;99.90;;;;;;4815840;29;20656;-81
2023/08/28 05:52:45;;;;;;;6.00;5.40;;;27.10;99.90;;;;;;4812817;29;20205;-81
2023/08/28 05:55:11;;;;;;;6.20;5.17;;;27.10;99.90;;;;;;4812987;29;20291;-87
2023/08/28 05:57:37;;;;;;;8.40;6.20;;;27.20;99.90;;;;;;4809378;29;20211;-81
2023/08/28 06:00:04;;;;;;;6.57;5.17;;;27.20;99.90;;;;;;4807545;29;20214;-88
2023/08/28 06:02:30;;;;;;;6.17;5.57;;;27.30;99.90;;;;;;4809882;29;20191;-88
2023/08/28 06:04:55;;;;;;;7.00;5.17;;;27.40;99.90;;;;;;4812597;29;20486;-87
2023/08/28 06:07:21;;;;;;;6.23;5.63;;;27.40;99.90;;;;;;4814303;29;20896;-87
2023/08/28 06:09:47;;;;;;;6.10;5.57;;;27.50;99.90;;;;;;4811504;29;20459;-82
2023/08/28 06:12:12;;;;;;;5.00;4.50;;;27.50;99.90;;;;;;4808142;29;20194;-82
2023/08/28 06:14:38;;;;;;;7.40;6.03;;;27.60;99.90;;;;;;4811265;29;20228;-87
2023/08/28 06:17:04;;;;;;;6.43;5.77;;;27.60;99.90;;;;;;4818771;29;20868;-82
2023/08/28 06:19:29;;;;;;;8.93;5.80;;;27.70;99.90;;;;;;4808759;29;20632;-82
2023/08/28 06:21:55;;;;;;;5.50;4.83;;;27.80;99.90;;;;;;4810548;29;20557;-88
2023/08/28 06:24:21;;;;;;;5.80;4.80;;;27.90;99.90;;;;;;4811871;29;20231;-89
2023/08/28 06:26:47;;;;;;;5.70;5.17;;;27.90;99.90;;;;;;4814752;29;20778;-88
2023/08/28 06:29:12;;;;;;;5.93;5.40;;;28.00;99.90;;;;;;4809948;29;20947;-81
2023/08/28 06:31:38;;;;;;;7.97;5.70;;;28.10;99.90;;;;;;4816102;29;20236;-82
2023/08/28 06:34:04;;;;;;;6.20;5.40;;;28.20;99.90;;;;;;4816436;29;20201;-87
2023/08/28 06:36:30;;;;;;;6.37;5.30;;;28.20;99.90;;;;;;4813559;29;20404;-87
2023/08/28 06:38:59;;;;;;;5.80;4.80;;;28.30;99.90;;;;;;4813795;29;20521;-80
2023/08/28 06:41:25;;;;;;;5.00;4.50;;;28.50;99.90;;;;;;4815673;29;20631;-88
2023/08/28 06:43:50;;;;;;;4.80;4.27;;;28.60;99.90;;;;;;4813739;29;20476;-81
2023/08/28 06:46:16;;;;;;;5.93;5.33;;;28.70;99.90;;;;;;4811018;29;20324;-87
2023/08/28 06:48:45;;;;;;;4.87;4.30;;;28.80;99.90;;;;;;4827876;29;20239;-84
2023/08/28 06:51:11;;;;;;;5.17;4.67;;;28.80;99.90;;;;;;4810633;29;20751;-88
2023/08/28 06:53:38;;;;;;;4.40;4.00;;;28.90;99.90;;;;;;4810655;29;20706;-81
2023/08/28 06:56:04;;;;;;;4.63;4.23;;;29.10;99.70;;;;;;4807210;29;20502;-87
2023/08/28 06:58:30;;;;;;;4.57;4.17;;;29.20;99.40;;;;;;4809804;29;20962;-81
2023/08/28 07:00:56;;;;;;;5.10;4.23;;;29.20;98.90;;;;;;4806975;29;20520;-89
2023/08/28 07:03:21;;;;;;;4.77;4.13;;;29.30;98.90;;;;;;4811722;29;20452;-83
2023/08/28 07:05:47;;;;;;;4.30;3.90;;;29.40;98.80;;;;;;4805230;29;20568;-82
2023/08/28 07:08:13;;;;;;;4.87;4.20;;;29.50;98.90;;;;;;4812109;29;20200;-81
2023/08/28 07:10:38;;;;;;;5.43;4.00;;;29.70;98.20;;;;;;4833185;29;20732;-90
2023/08/28 07:13:04;;;;;;;4.20;3.67;;;29.80;97.80;;;;;;4800993;29;20204;-80
2023/08/28 07:15:29;;;;;;;5.33;4.30;;;29.80;98.10;;;;;;4811683;29;20213;-81
2023/08/28 07:17:55;;;;;;;4.07;3.63;;;29.90;97.80;;;;;;4810596;29;20561;-81
2023/08/28 07:20:22;;;;;;;3.87;3.50;;;30.10;97.40;;;;;;4811093;29;20210;-81
2023/08/28 07:22:48;;;;;;;4.47;4.07;;;30.20;97.40;;;;;;4810599;29;20174;-88
2023/08/28 07:25:15;;;;;;;4.20;3.80;;;30.20;96.50;;;;;;4809278;29;20480;-88
2023/08/28 07:27:41;;;;;;;4.20;3.80;;;30.30;96.50;;;;;;4805252;29;20288;-81
2023/08/28 07:30:07;;;;;;;4.90;4.00;;;30.40;96.70;;;;;;4810892;29;20572;-82
2023/08/28 07:32:33;;;;;;;3.93;3.60;;;30.50;96.60;;;;;;4807669;29;20186;-82
2023/08/28 07:35:01;;;;;;;4.13;3.73;;;30.70;96.40;;;;;;4811630;29;20752;-87
2023/08/28 07:37:30;;;;;;;4.10;3.80;;;30.80;96.20;;;;;;4809279;29;20993;-81
2023/08/28 07:39:56;;;;;;;4.20;3.80;;;30.90;96.00;;;;;;4808312;29;20951;-81
2023/08/28 07:42:21;;;;;;;5.13;3.50;;;31.00;95.40;;;;;;4810547;29;20444;-81
2023/08/28 07:44:47;;;;;;;3.60;3.30;;;31.10;95.40;;;;;;4810808;29;20293;-88
2023/08/28 07:47:13;;;;;;;3.97;3.67;;;31.20;94.90;;;;;;4810762;29;20217;-88
2023/08/28 07:49:40;;;;;;;3.73;3.37;;;31.30;95.10;;;;;;4811752;29;20221;-85
2023/08/28 07:52:06;;;;;;;3.63;3.30;;;31.40;94.90;;;;;;4813678;29;20543;-82
2023/08/28 07:54:31;;;;;;;3.30;3.00;;;31.60;94.80;;;;;;4804741;29;20714;-81
2023/08/28 07:56:57;;;;;;;5.53;3.73;;;31.70;94.30;;;;;;4808084;29;20852;-87
2023/08/28 07:59:22;;;;;;;3.70;3.40;;;31.90;94.00;;;;;;4815559;29;20641;-84
2023/08/28 08:01:48;;;;;;;4.13;3.73;;;32.00;93.90;;;;;;4815915;29;20182;-86
2023/08/28 08:04:14;;;;;;;3.80;3.43;;;32.00;92.80;;;;;;4814473;29;20213;-84
2023/08/28 08:06:40;;;;;;;3.50;3.20;;;32.10;92.80;;;;;;4814577;29;20381;-84
2023/08/28 08:09:05;;;;;;;4.87;3.60;;;32.20;93.30;;;;;;4815345;29;20720;-85
2023/08/28 08:11:32;;;;;;;3.40;3.10;;;32.30;92.40;;;;;;4814483;29;20270;-84
2023/08/28 08:13:58;;;;;;;4.07;3.67;;;32.40;92.20;;;;;;4816515;29;20245;-87
2023/08/28 08:16:24;;;;;;;3.47;3.17;;;32.50;91.60;;;;;;4812641;29;20457;-87
2023/08/28 08:18:50;;;;;;;3.20;2.77;;;32.60;91.70;;;;;;4813524;29;20533;-86
2023/08/28 08:21:16;;;;;;;4.00;3.13;;;32.70;91.90;;;;;;4804844;29;20556;-86
2023/08/28 08:23:42;;;;;;;3.03;2.50;;;32.70;91.10;;;;;;4808629;29;20187;-87
2023/08/28 08:26:08;;;;;;;3.03;2.83;;;32.90;90.80;;;;;;4815444;29;20368;-85
2023/08/28 08:28:34;;;;;;;2.90;2.57;;;32.90;90.70;;;;;;4814964;29;20426;-83
2023/08/28 08:30:59;;;;;;;3.50;2.57;;;33.10;90.50;;;;;;4816389;29;20622;-83
2023/08/28 08:33:25;;;;;;;3.77;3.47;;;33.20;89.90;;;;;;4817531;29;20571;-84
2023/08/28 08:35:51;;;;;;;3.97;2.63;;;33.20;88.50;;;;;;4817159;29;20205;-84
2023/08/28 08:38:17;;;;;;;3.80;2.97;;;33.30;88.00;;;;;;4813301;29;20362;-83
2023/08/28 08:40:43;;;;;;;3.10;2.80;;;33.30;88.00;;;;;;4816475;29;20214;-84
2023/08/28 08:43:09;;;;;;;3.70;2.90;;;33.40;87.10;;;;;;4801044;29;20488;-84
2023/08/28 08:45:37;;;;;;;3.13;2.60;;;33.50;86.50;;;;;;4806906;29;20511;-83
2023/08/28 08:48:07;;;;;;;2.77;2.50;;;33.60;86.80;;;;;;4815835;29;20518;-84
2023/08/28 08:50:37;;;;;;;3.30;2.63;;;33.70;86.70;;;;;;4815612;29;20449;-86
2023/08/28 08:53:06;;;;;;;2.90;2.70;;;34.10;86.30;;;;;;4829947;29;20858;-86
2023/08/28 08:55:45;;;;;;;2.10;2.00;;;34.60;84.30;;;;;;4830903;29;20469;-85
2023/08/28 08:58:14;;;;;;;4.03;2.90;;;34.90;83.10;;;;;;4816493;29;20453;-85
2023/08/28 09:00:43;;;;;;;3.07;2.77;;;35.00;83.30;;;;;;4816455;29;20468;-83
2023/08/28 09:03:10;;;;;;;3.80;2.83;;;35.00;83.40;;;;;;4817482;29;20432;-85
2023/08/28 09:05:36;;;;;;;3.37;3.07;;;34.90;82.70;;;;;;4816704;29;20549;-85
2023/08/28 09:08:06;;;;;;;3.37;3.07;;;34.90;82.50;;;;;;4813587;29;20439;-85
2023/08/28 09:10:33;;;;;;;3.20;2.90;;;34.80;81.70;;;;;;4800662;29;20678;-84
2023/08/28 09:12:59;;;;;;;3.40;3.10;;;34.80;82.30;;;;;;4812842;29;20449;-84
2023/08/28 09:15:25;;;;;;;2.97;2.77;;;34.80;81.30;;;;;;4812463;29;20457;-85
2023/08/28 09:17:51;;;;;;;3.17;2.77;;;34.80;81.70;;;;;;4811725;29;20483;-84
2023/08/28 09:20:19;;;;;;;3.40;3.03;;;34.90;82.80;;;;;;4810564;29;20621;-86
2023/08/28 09:22:51;;;;;;;3.83;3.20;;;35.00;82.20;;;;;;4830740;29;20812;-86
2023/08/28 09:25:18;;;;;;;2.70;2.50;;;35.10;81.10;;;;;;4827299;29;20851;-84
2023/08/28 09:27:46;;;;;;;3.40;3.10;;;35.10;81.20;;;;;;4811552;29;20817;-84
2023/08/28 09:30:36;;;;;;;5.00;3.23;;;35.10;81.00;;;;;;4811378;29;20752;-84
2023/08/28 09:33:06;;;;;;;3.47;3.17;;;35.10;80.30;;;;;;4805610;29;20441;-86
2023/08/28 09:35:42;;;;;;;4.67;2.97;;;35.10;80.60;;;;;;4826994;29;20454;-84
2023/08/28 09:38:10;;;;;;;4.90;3.70;;;35.10;80.50;;;;;;4814498;29;20464;-84
2023/08/28 09:40:40;;;;;;;2.90;2.70;;;35.10;79.90;;;;;;4816106;29;20917;-84
2023/08/28 09:43:14;;;;;;;4.10;3.70;;;35.20;80.00;;;;;;4812105;29;20875;-84
2023/08/28 09:45:42;;;;;;;2.97;2.77;;;35.30;79.60;;;;;;4812053;29;20496;-86
2023/08/28 09:48:08;;;;;;;3.33;3.03;;;35.30;79.30;;;;;;4823621;29;20800;-84
2023/08/28 09:50:37;;;;;;;6.07;2.43;;;35.20;79.80;;;;;;4813733;29;20513;-85
2023/08/28 09:53:09;;;;;;;2.90;2.57;;;35.30;79.50;;;;;;4814978;29;20445;-85
2023/08/28 09:55:46;;;;;;;4.00;2.93;;;35.50;79.70;;;;;;4812650;29;20485;-85
2023/08/28 09:58:12;;;;;;;3.40;3.10;;;35.50;79.50;;;;;;4811791;29;20682;-86
2023/08/28 10:00:40;;;;;;;3.90;3.50;;;35.60;78.80;;;;;;4810698;29;20705;-85
2023/08/28 10:03:08;;;;;;;3.40;2.83;;;35.70;78.80;;;;;;4810912;29;20446;-85
2023/08/28 10:05:37;;;;;;;3.57;3.10;;;35.70;78.30;;;;;;4821503;29;20481;-85
2023/08/28 10:08:06;;;;;;;3.40;2.90;;;35.70;78.30;;;;;;4812162;29;20463;-85
2023/08/28 10:10:33;;;;;;;3.70;3.40;;;35.80;77.90;;;;;;4811471;29;20576;-85
2023/08/28 10:13:00;;;;;;;3.20;2.93;;;35.80;78.30;;;;;;4807361;29;20439;-84
2023/08/28 10:15:27;;;;;;;3.60;3.30;;;35.80;77.70;;;;;;4806197;29;21156;-86
2023/08/28 10:17:54;;;;;;;5.30;3.07;;;35.90;77.50;;;;;;4806908;29;20607;-85
2023/08/28 10:20:22;;;;;;;3.43;3.20;;;35.90;77.40;;;;;;4810998;29;20816;-84
2023/08/28 10:22:49;;;;;;;4.70;3.20;;;36.00;77.40;;;;;;4801540;29;20437;-86
2023/08/28 10:25:16;;;;;;;3.57;3.27;;;36.00;77.60;;;;;;4807597;29;20591;-84
2023/08/28 10:27:43;;;;;;;3.70;3.40;;;36.10;78.10;;;;;;4805533;29;20520;-84
2023/08/28 10:30:11;;;;;;;3.53;3.13;;;36.20;77.40;;;;;;4806580;29;20685;-85
2023/08/28 10:32:37;;;;;;;5.30;3.50;;;36.20;77.80;;;;;;4817578;29;20496;-85
2023/08/28 10:35:04;;;;;;;3.90;3.50;;;36.20;77.40;;;;;;4806264;29;20485;-85
2023/08/28 10:37:31;;;;;;;3.63;3.33;;;36.30;77.30;;;;;;4816543;29;20477;-85
2023/08/28 10:40:01;;;;;;;4.20;3.77;;;36.30;77.20;;;;;;4793222;29;20720;-85
2023/08/28 10:42:29;;;;;;;5.00;4.10;;;36.30;77.30;;;;;;4806531;29;20929;-86
2023/08/28 10:44:57;;;;;;;4.43;3.90;;;36.30;77.00;;;;;;4811771;29;20481;-84
2023/08/28 10:47:22;;;;;;;3.70;3.40;;;36.20;77.30;;;;;;4808470;29;20998;-84
2023/08/28 10:49:52;;;;;;;3.90;3.50;;;36.30;77.10;;;;;;4801934;29;20498;-86
2023/08/28 10:52:20;;;;;;;4.93;4.03;;;36.40;77.50;;;;;;4795766;29;20565;-84
2023/08/28 10:54:46;;;;;;;3.77;3.47;;;36.50;77.50;;;;;;4808810;29;20966;-83
2023/08/28 10:57:28;;;;;;;3.60;3.30;;;36.50;77.50;;;;;;4813224;29;20456;-84
2023/08/28 10:59:58;;;;;;;4.33;4.00;;;36.50;77.40;;;;;;4816869;29;20876;-85
2023/08/28 11:02:26;;;;;;;3.90;3.57;;;36.60;77.30;;;;;;4807635;29;20976;-84
2023/08/28 11:04:51;;;;;;;3.30;3.00;;;36.70;77.30;;;;;;4812788;29;20496;-84
2023/08/28 11:07:23;;;;;;;4.00;3.70;;;36.70;76.90;;;;;;4812117;29;20437;-83
2023/08/28 11:09:49;;;;;;;3.87;3.47;;;36.70;77.00;;;;;;4812541;29;20217;-84
2023/08/28 11:12:18;;;;;;;4.03;3.67;;;36.70;76.60;;;;;;4813707;29;20836;-83
2023/08/28 11:15:05;;;;;;;3.70;3.40;;;36.70;76.70;;;;;;4813065;29;20449;-84
2023/08/28 11:17:31;;;;;;;4.43;3.87;;;36.70;77.10;;;;;;4814444;29;20437;-83
2023/08/28 11:19:57;;;;;;;5.10;4.10;;;36.70;76.40;;;;;;4813183;29;20735;-83
2023/08/28 11:22:40;;;;;;;5.27;4.73;;;36.70;76.70;;;;;;4828883;29;21002;-84
2023/08/28 11:25:10;;;;;;;4.97;3.70;;;36.60;76.30;;;;;;4825953;29;20824;-84
2023/08/28 11:27:42;;;;;;;4.10;3.70;;;36.60;76.90;;;;;;4813724;29;20873;-84
2023/08/28 11:30:09;;;;;;;4.20;3.80;;;36.70;77.10;;;;;;4813318;29;20477;-83
2023/08/28 11:32:36;;;;;;;4.23;3.80;;;36.70;76.80;;;;;;4812167;29;20675;-84
2023/08/28 11:35:05;;;;;;;4.00;3.70;;;36.60;76.40;;;;;;4813153;29;20748;-83
2023/08/28 11:37:42;;;;;;;7.20;3.87;;;36.60;76.60;;;;;;4814392;29;20524;-84
2023/08/28 11:40:09;;;;;;;7.20;4.63;;;36.70;77.20;;;;;;4809413;29;20819;-83
2023/08/28 11:42:36;;;;;;;4.10;3.80;;;36.70;76.60;;;;;;4823206;29;20787;-83
2023/08/28 11:45:04;;;;;;;4.40;4.00;;;36.80;76.20;;;;;;4817205;29;20834;-84
2023/08/28 11:47:32;;;;;;;5.23;4.40;;;36.80;75.20;;;;;;4811394;29;20512;-83
2023/08/28 11:49:59;;;;;;;4.37;3.97;;;36.80;75.60;;;;;;4810613;29;20815;-84
2023/08/28 11:52:25;;;;;;;4.23;3.73;;;36.80;75.90;;;;;;4809764;29;20445;-83
2023/08/28 11:54:52;;;;;;;4.30;3.83;;;36.80;75.90;;;;;;4812673;29;20656;-83
2023/08/28 11:57:19;;;;;;;4.67;4.27;;;36.90;76.10;;;;;;4812588;29;20432;-84
2023/08/28 11:59:47;;;;;;;5.63;4.53;;;36.90;75.50;;;;;;4812486;29;20470;-84
2023/08/28 12:02:13;;;;;;;3.87;3.57;;;36.90;75.10;;;;;;4808517;29;20857;-84
2023/08/28 12:04:40;;;;;;;4.13;3.73;;;36.90;75.90;;;;;;4811446;29;20489;-84
2023/08/28 12:07:20;;;;;;;4.13;3.83;;;36.90;76.30;;;;;;4823951;29;20437;-83
2023/08/28 12:09:48;;;;;;;4.10;3.70;;;37.00;75.60;;;;;;4812886;29;20552;-83
2023/08/28 12:12:15;;;;;;;5.30;4.80;;;37.00;76.80;;;;;;4812653;29;20945;-84
2023/08/28 12:14:43;;;;;;;4.10;3.50;;;37.10;75.30;;;;;;4812925;29;20582;-84
2023/08/28 12:17:13;;;;;;;4.57;4.17;;;37.20;74.70;;;;;;4814172;29;20516;-84
2023/08/28 12:19:39;;;;;;;3.80;3.50;;;37.20;75.40;;;;;;4819138;29;20454;-84
2023/08/28 12:22:05;;;;;;;5.37;3.70;;;37.20;75.30;;;;;;4807030;29;20452;-84
2023/08/28 12:24:31;;;;;;;6.20;4.40;;;37.30;76.20;;;;;;4792354;29;20316;-84
2023/08/28 12:26:57;;;;;;;7.00;4.50;;;37.30;75.20;;;;;;4791357;29;21032;-83
2023/08/28 12:29:26;;;;;;;4.30;3.83;;;37.40;75.00;;;;;;4819141;29;20183;-84
2023/08/28 12:31:52;;;;;;;3.97;3.63;;;37.50;75.60;;;;;;4816374;29;20318;-84
2023/08/28 12:34:18;;;;;;;4.90;4.27;;;37.50;75.80;;;;;;4811680;29;20418;-83
2023/08/28 12:36:46;;;;;;;3.93;3.60;;;37.50;74.30;;;;;;4814625;29;20778;-84
2023/08/28 12:39:21;;;;;;;6.37;4.37;;;37.40;75.00;;;;;;4814975;29;20429;-84
2023/08/28 12:41:51;;;;;;;4.87;4.43;;;37.30;75.10;;;;;;4813268;29;20548;-84